sensor_id;sensor_type;location;lat;lon;timestamp;P1;durP1;ratioP1;P2;durP2;ratioP2
23068;SDS011;11702;50.856;4.348;2022-10-30T00:00:16;19.13;;;6.57;;
23068;SDS011;11702;50.856;4.348;2022-10-30T00:02:41;14.35;;;5.63;;
23068;SDS011;11702;50.856;4.348;2022-10-30T00:05:07;18.23;;;6.35;;
23068;SDS011;11702;50.856;4.348;2022-10-30T00:07:33;18.65;;;5.88;;
23068;SDS011;11702;50.856;4.348;2022-10-30T00:09:58;21.65;;;6.65;;
23068;SDS011;11702;50.856;4.348;2022-10-30T00:12:24;20.02;;;6.93;;
23068;SDS011;11702;50.856;4.348;2022-10-30T00:14:50;16.15;;;5.88;;
23068;SDS011;11702;50.856;4.348;2022-10-30T00:17:15;18.23;;;5.55;;
23068;SDS011;11702;50.856;4.348;2022-10-30T00:19:41;15.48;;;6.60;;
23068;SDS011;11702;50.856;4.348;2022-10-30T00:22:07;23.83;;;7.30;;
23068;SDS011;11702;50.856;4.348;2022-10-30T00:24:33;13.25;;;5.97;;
23068;SDS011;11702;50.856;4.348;2022-10-30T00:26:59;19.15;;;6.40;;
23068;SDS011;11702;50.856;4.348;2022-10-30T00:29:24;19.45;;;6.30;;
23068;SDS011;11702;50.856;4.348;2022-10-30T00:31:50;23.10;;;7.88;;
23068;SDS011;11702;50.856;4.348;2022-10-30T00:34:17;17.27;;;6.57;;
23068;SDS011;11702;50.856;4.348;2022-10-30T00:36:43;14.20;;;6.20;;
23068;SDS011;11702;50.856;4.348;2022-10-30T00:39:08;14.25;;;5.88;;
23068;SDS011;11702;50.856;4.348;2022-10-30T00:41:35;14.80;;;6.47;;
23068;SDS011;11702;50.856;4.348;2022-10-30T00:44:30;14.00;;;4.88;;
23068;SDS011;11702;50.856;4.348;2022-10-30T00:47:27;22.05;;;6.75;;
23068;SDS011;11702;50.856;4.348;2022-10-30T00:49:59;22.20;;;6.78;;
23068;SDS011;11702;50.856;4.348;2022-10-30T00:52:33;17.92;;;6.55;;
23068;SDS011;11702;50.856;4.348;2022-10-30T00:55:05;18.58;;;7.32;;
23068;SDS011;11702;50.856;4.348;2022-10-30T00:57:35;12.57;;;6.90;;
23068;SDS011;11702;50.856;4.348;2022-10-30T01:00:04;15.98;;;6.75;;
23068;SDS011;11702;50.856;4.348;2022-10-30T01:02:30;18.90;;;6.82;;
23068;SDS011;11702;50.856;4.348;2022-10-30T01:04:57;20.50;;;6.90;;
23068;SDS011;11702;50.856;4.348;2022-10-30T01:07:23;15.48;;;6.90;;
23068;SDS011;11702;50.856;4.348;2022-10-30T01:09:49;15.50;;;6.50;;
23068;SDS011;11702;50.856;4.348;2022-10-30T01:12:14;20.02;;;6.30;;
23068;SDS011;11702;50.856;4.348;2022-10-30T01:14:42;17.95;;;6.03;;
23068;SDS011;11702;50.856;4.348;2022-10-30T01:34:00;16.40;;;7.18;;
23068;SDS011;11702;50.856;4.348;2022-10-30T01:39:31;15.88;;;6.82;;
23068;SDS011;11702;50.856;4.348;2022-10-30T01:42:06;20.65;;;6.43;;
23068;SDS011;11702;50.856;4.348;2022-10-30T01:44:33;16.17;;;7.00;;
23068;SDS011;11702;50.856;4.348;2022-10-30T01:52:48;13.85;;;6.97;;
23068;SDS011;11702;50.856;4.348;2022-10-30T02:00:35;16.70;;;6.78;;
23068;SDS011;11702;50.856;4.348;2022-10-30T02:03:04;16.98;;;7.68;;
23068;SDS011;11702;50.856;4.348;2022-10-30T02:05:49;14.77;;;6.57;;
23068;SDS011;11702;50.856;4.348;2022-10-30T02:08:16;17.27;;;6.68;;
23068;SDS011;11702;50.856;4.348;2022-10-30T02:10:42;18.85;;;7.20;;
23068;SDS011;11702;50.856;4.348;2022-10-30T02:13:10;22.40;;;7.60;;
23068;SDS011;11702;50.856;4.348;2022-10-30T02:15:36;19.25;;;7.82;;
23068;SDS011;11702;50.856;4.348;2022-10-30T02:18:03;17.10;;;7.40;;
23068;SDS011;11702;50.856;4.348;2022-10-30T02:20:31;16.13;;;7.22;;
23068;SDS011;11702;50.856;4.348;2022-10-30T02:23:00;15.38;;;7.22;;
23068;SDS011;11702;50.856;4.348;2022-10-30T02:25:26;15.98;;;6.70;;
23068;SDS011;11702;50.856;4.348;2022-10-30T02:27:51;32.42;;;8.23;;
23068;SDS011;11702;50.856;4.348;2022-10-30T02:30:17;18.92;;;6.63;;
23068;SDS011;11702;50.856;4.348;2022-10-30T02:32:43;14.35;;;6.88;;
23068;SDS011;11702;50.856;4.348;2022-10-30T02:35:08;20.13;;;7.85;;
23068;SDS011;11702;50.856;4.348;2022-10-30T02:37:34;17.02;;;6.93;;
23068;SDS011;11702;50.856;4.348;2022-10-30T02:40:02;16.85;;;6.78;;
23068;SDS011;11702;50.856;4.348;2022-10-30T02:42:29;11.90;;;6.68;;
23068;SDS011;11702;50.856;4.348;2022-10-30T02:44:54;21.90;;;7.13;;
23068;SDS011;11702;50.856;4.348;2022-10-30T02:47:20;21.90;;;7.43;;
23068;SDS011;11702;50.856;4.348;2022-10-30T02:49:47;13.85;;;6.78;;
23068;SDS011;11702;50.856;4.348;2022-10-30T02:52:12;21.30;;;7.63;;
23068;SDS011;11702;50.856;4.348;2022-10-30T02:54:38;17.17;;;6.78;;
23068;SDS011;11702;50.856;4.348;2022-10-30T02:57:03;18.75;;;7.00;;
23068;SDS011;11702;50.856;4.348;2022-10-30T02:59:29;13.18;;;6.50;;
23068;SDS011;11702;50.856;4.348;2022-10-30T03:01:55;16.77;;;6.72;;
23068;SDS011;11702;50.856;4.348;2022-10-30T03:04:20;23.13;;;6.90;;
23068;SDS011;11702;50.856;4.348;2022-10-30T03:06:46;16.92;;;6.20;;
23068;SDS011;11702;50.856;4.348;2022-10-30T03:09:11;17.92;;;7.18;;
23068;SDS011;11702;50.856;4.348;2022-10-30T03:11:37;19.30;;;7.60;;
23068;SDS011;11702;50.856;4.348;2022-10-30T03:14:03;23.83;;;6.45;;
23068;SDS011;11702;50.856;4.348;2022-10-30T03:16:28;15.85;;;6.68;;
23068;SDS011;11702;50.856;4.348;2022-10-30T03:18:55;17.27;;;6.95;;
23068;SDS011;11702;50.856;4.348;2022-10-30T03:21:22;19.70;;;7.85;;
23068;SDS011;11702;50.856;4.348;2022-10-30T03:23:48;16.23;;;6.20;;
23068;SDS011;11702;50.856;4.348;2022-10-30T03:26:15;14.45;;;7.30;;
23068;SDS011;11702;50.856;4.348;2022-10-30T03:28:41;21.02;;;7.40;;
23068;SDS011;11702;50.856;4.348;2022-10-30T03:31:07;22.00;;;7.00;;
23068;SDS011;11702;50.856;4.348;2022-10-30T03:33:35;22.75;;;7.97;;
23068;SDS011;11702;50.856;4.348;2022-10-30T03:36:02;21.23;;;7.25;;
23068;SDS011;11702;50.856;4.348;2022-10-30T03:38:29;14.05;;;6.65;;
23068;SDS011;11702;50.856;4.348;2022-10-30T03:40:55;21.23;;;7.95;;
23068;SDS011;11702;50.856;4.348;2022-10-30T03:43:20;17.45;;;6.90;;
23068;SDS011;11702;50.856;4.348;2022-10-30T03:45:50;15.32;;;6.90;;
23068;SDS011;11702;50.856;4.348;2022-10-30T03:48:18;25.35;;;6.97;;
23068;SDS011;11702;50.856;4.348;2022-10-30T03:50:45;24.17;;;7.70;;
23068;SDS011;11702;50.856;4.348;2022-10-30T03:53:10;18.02;;;7.70;;
23068;SDS011;11702;50.856;4.348;2022-10-30T03:55:37;17.05;;;7.13;;
23068;SDS011;11702;50.856;4.348;2022-10-30T03:58:03;17.05;;;7.40;;
23068;SDS011;11702;50.856;4.348;2022-10-30T04:00:30;20.80;;;7.32;;
23068;SDS011;11702;50.856;4.348;2022-10-30T04:02:57;17.30;;;6.93;;
23068;SDS011;11702;50.856;4.348;2022-10-30T04:05:23;26.30;;;8.20;;
23068;SDS011;11702;50.856;4.348;2022-10-30T04:07:54;14.07;;;7.30;;
23068;SDS011;11702;50.856;4.348;2022-10-30T04:10:21;25.40;;;7.40;;
23068;SDS011;11702;50.856;4.348;2022-10-30T04:12:46;20.38;;;7.72;;
23068;SDS011;11702;50.856;4.348;2022-10-30T04:15:12;29.52;;;7.15;;
23068;SDS011;11702;50.856;4.348;2022-10-30T04:17:38;17.30;;;6.70;;
23068;SDS011;11702;50.856;4.348;2022-10-30T04:20:03;19.13;;;7.63;;
23068;SDS011;11702;50.856;4.348;2022-10-30T04:22:30;15.40;;;7.65;;
23068;SDS011;11702;50.856;4.348;2022-10-30T04:24:55;24.02;;;7.45;;
23068;SDS011;11702;50.856;4.348;2022-10-30T04:27:21;23.05;;;8.25;;
23068;SDS011;11702;50.856;4.348;2022-10-30T04:29:47;22.10;;;7.03;;
23068;SDS011;11702;50.856;4.348;2022-10-30T04:32:12;24.67;;;7.57;;
23068;SDS011;11702;50.856;4.348;2022-10-30T04:34:41;20.33;;;7.80;;
23068;SDS011;11702;50.856;4.348;2022-10-30T04:37:07;17.08;;;7.10;;
23068;SDS011;11702;50.856;4.348;2022-10-30T04:39:33;19.75;;;6.07;;
23068;SDS011;11702;50.856;4.348;2022-10-30T04:41:58;16.45;;;6.68;;
23068;SDS011;11702;50.856;4.348;2022-10-30T04:44:24;16.70;;;6.20;;
23068;SDS011;11702;50.856;4.348;2022-10-30T04:46:50;20.20;;;6.63;;
23068;SDS011;11702;50.856;4.348;2022-10-30T04:49:16;14.98;;;6.45;;
23068;SDS011;11702;50.856;4.348;2022-10-30T04:51:42;21.70;;;7.30;;
23068;SDS011;11702;50.856;4.348;2022-10-30T04:54:07;16.17;;;7.18;;
23068;SDS011;11702;50.856;4.348;2022-10-30T04:56:33;20.60;;;7.10;;
23068;SDS011;11702;50.856;4.348;2022-10-30T04:58:59;21.30;;;7.65;;
23068;SDS011;11702;50.856;4.348;2022-10-30T05:01:24;17.50;;;7.22;;
23068;SDS011;11702;50.856;4.348;2022-10-30T05:03:50;22.70;;;7.53;;
23068;SDS011;11702;50.856;4.348;2022-10-30T05:06:20;21.10;;;7.78;;
23068;SDS011;11702;50.856;4.348;2022-10-30T05:08:49;19.80;;;7.47;;
23068;SDS011;11702;50.856;4.348;2022-10-30T05:11:15;25.85;;;7.70;;
23068;SDS011;11702;50.856;4.348;2022-10-30T05:13:41;18.95;;;7.65;;
23068;SDS011;11702;50.856;4.348;2022-10-30T05:16:07;19.95;;;6.82;;
23068;SDS011;11702;50.856;4.348;2022-10-30T05:18:33;19.40;;;7.45;;
23068;SDS011;11702;50.856;4.348;2022-10-30T05:20:58;21.75;;;7.88;;
23068;SDS011;11702;50.856;4.348;2022-10-30T05:23:24;20.02;;;7.55;;
23068;SDS011;11702;50.856;4.348;2022-10-30T05:25:49;18.42;;;7.63;;
23068;SDS011;11702;50.856;4.348;2022-10-30T05:28:15;19.75;;;7.53;;
23068;SDS011;11702;50.856;4.348;2022-10-30T05:30:41;19.55;;;7.22;;
23068;SDS011;11702;50.856;4.348;2022-10-30T05:33:08;17.40;;;7.95;;
23068;SDS011;11702;50.856;4.348;2022-10-30T05:35:36;27.65;;;7.50;;
23068;SDS011;11702;50.856;4.348;2022-10-30T05:38:03;16.35;;;7.40;;
23068;SDS011;11702;50.856;4.348;2022-10-30T05:40:31;24.88;;;7.30;;
23068;SDS011;11702;50.856;4.348;2022-10-30T05:42:57;21.67;;;7.30;;
23068;SDS011;11702;50.856;4.348;2022-10-30T05:45:23;15.27;;;6.97;;
23068;SDS011;11702;50.856;4.348;2022-10-30T05:50:24;18.42;;;7.60;;
23068;SDS011;11702;50.856;4.348;2022-10-30T05:52:59;18.70;;;6.90;;
23068;SDS011;11702;50.856;4.348;2022-10-30T05:55:26;29.65;;;8.85;;
23068;SDS011;11702;50.856;4.348;2022-10-30T05:57:58;16.27;;;7.78;;
23068;SDS011;11702;50.856;4.348;2022-10-30T06:00:29;16.90;;;7.72;;
23068;SDS011;11702;50.856;4.348;2022-10-30T06:03:00;16.27;;;7.35;;
23068;SDS011;11702;50.856;4.348;2022-10-30T06:05:28;20.75;;;7.82;;
23068;SDS011;11702;50.856;4.348;2022-10-30T06:07:54;21.98;;;7.57;;
23068;SDS011;11702;50.856;4.348;2022-10-30T06:10:21;24.92;;;7.93;;
23068;SDS011;11702;50.856;4.348;2022-10-30T06:12:53;17.77;;;7.63;;
23068;SDS011;11702;50.856;4.348;2022-10-30T06:15:24;29.23;;;8.77;;
23068;SDS011;11702;50.856;4.348;2022-10-30T06:17:49;22.65;;;8.05;;
23068;SDS011;11702;50.856;4.348;2022-10-30T06:20:16;26.05;;;8.18;;
23068;SDS011;11702;50.856;4.348;2022-10-30T06:25:38;21.88;;;7.65;;
23068;SDS011;11702;50.856;4.348;2022-10-30T06:28:04;21.40;;;8.13;;
23068;SDS011;11702;50.856;4.348;2022-10-30T06:30:30;18.90;;;7.88;;
23068;SDS011;11702;50.856;4.348;2022-10-30T06:32:59;26.20;;;8.98;;
23068;SDS011;11702;50.856;4.348;2022-10-30T06:35:26;22.33;;;8.10;;
23068;SDS011;11702;50.856;4.348;2022-10-30T06:37:52;19.30;;;7.78;;
23068;SDS011;11702;50.856;4.348;2022-10-30T06:40:19;22.85;;;8.57;;
23068;SDS011;11702;50.856;4.348;2022-10-30T06:42:45;18.92;;;8.27;;
23068;SDS011;11702;50.856;4.348;2022-10-30T06:45:12;20.83;;;8.73;;
23068;SDS011;11702;50.856;4.348;2022-10-30T06:47:39;21.60;;;7.97;;
23068;SDS011;11702;50.856;4.348;2022-10-30T06:50:06;23.40;;;9.63;;
23068;SDS011;11702;50.856;4.348;2022-10-30T06:52:33;21.38;;;8.98;;
23068;SDS011;11702;50.856;4.348;2022-10-30T06:54:59;30.65;;;9.38;;
23068;SDS011;11702;50.856;4.348;2022-10-30T06:57:25;20.77;;;8.18;;
23068;SDS011;11702;50.856;4.348;2022-10-30T06:59:50;22.10;;;9.23;;
23068;SDS011;11702;50.856;4.348;2022-10-30T07:02:16;21.67;;;9.18;;
23068;SDS011;11702;50.856;4.348;2022-10-30T07:04:42;23.48;;;9.32;;
23068;SDS011;11702;50.856;4.348;2022-10-30T07:07:09;22.15;;;8.55;;
23068;SDS011;11702;50.856;4.348;2022-10-30T07:09:35;23.98;;;9.38;;
23068;SDS011;11702;50.856;4.348;2022-10-30T07:12:01;25.23;;;9.30;;
23068;SDS011;11702;50.856;4.348;2022-10-30T07:14:27;25.42;;;9.43;;
23068;SDS011;11702;50.856;4.348;2022-10-30T07:16:55;20.02;;;9.77;;
23068;SDS011;11702;50.856;4.348;2022-10-30T07:19:21;17.92;;;8.90;;
23068;SDS011;11702;50.856;4.348;2022-10-30T07:21:47;25.05;;;9.10;;
23068;SDS011;11702;50.856;4.348;2022-10-30T07:24:13;21.52;;;9.85;;
23068;SDS011;11702;50.856;4.348;2022-10-30T07:26:39;25.00;;;9.07;;
23068;SDS011;11702;50.856;4.348;2022-10-30T07:29:04;20.30;;;9.60;;
23068;SDS011;11702;50.856;4.348;2022-10-30T07:31:30;27.67;;;9.70;;
23068;SDS011;11702;50.856;4.348;2022-10-30T07:33:55;30.15;;;9.43;;
23068;SDS011;11702;50.856;4.348;2022-10-30T07:36:21;23.23;;;9.77;;
23068;SDS011;11702;50.856;4.348;2022-10-30T07:38:47;21.60;;;10.10;;
23068;SDS011;11702;50.856;4.348;2022-10-30T07:41:13;22.50;;;9.32;;
23068;SDS011;11702;50.856;4.348;2022-10-30T07:43:39;25.60;;;9.48;;
23068;SDS011;11702;50.856;4.348;2022-10-30T07:46:05;21.65;;;9.30;;
23068;SDS011;11702;50.856;4.348;2022-10-30T07:48:30;24.33;;;9.18;;
23068;SDS011;11702;50.856;4.348;2022-10-30T07:50:56;27.55;;;8.55;;
23068;SDS011;11702;50.856;4.348;2022-10-30T07:53:22;21.55;;;8.52;;
23068;SDS011;11702;50.856;4.348;2022-10-30T07:55:47;18.92;;;8.60;;
23068;SDS011;11702;50.856;4.348;2022-10-30T07:58:13;19.05;;;8.63;;
23068;SDS011;11702;50.856;4.348;2022-10-30T08:00:38;21.92;;;8.82;;
23068;SDS011;11702;50.856;4.348;2022-10-30T08:03:04;19.20;;;8.35;;
23068;SDS011;11702;50.856;4.348;2022-10-30T08:05:30;29.50;;;9.85;;
23068;SDS011;11702;50.856;4.348;2022-10-30T08:07:56;25.60;;;9.30;;
23068;SDS011;11702;50.856;4.348;2022-10-30T08:10:22;21.83;;;9.38;;
23068;SDS011;11702;50.856;4.348;2022-10-30T08:12:48;25.20;;;9.38;;
23068;SDS011;11702;50.856;4.348;2022-10-30T08:15:15;34.88;;;10.38;;
23068;SDS011;11702;50.856;4.348;2022-10-30T08:17:44;30.17;;;10.82;;
23068;SDS011;11702;50.856;4.348;2022-10-30T08:20:14;19.50;;;9.32;;
23068;SDS011;11702;50.856;4.348;2022-10-30T08:22:48;20.80;;;9.50;;
23068;SDS011;11702;50.856;4.348;2022-10-30T08:25:14;23.58;;;10.23;;
23068;SDS011;11702;50.856;4.348;2022-10-30T08:27:57;23.58;;;9.27;;
23068;SDS011;11702;50.856;4.348;2022-10-30T08:30:24;24.05;;;7.93;;
23068;SDS011;11702;50.856;4.348;2022-10-30T08:32:55;33.80;;;9.02;;
23068;SDS011;11702;50.856;4.348;2022-10-30T08:35:24;21.65;;;8.98;;
23068;SDS011;11702;50.856;4.348;2022-10-30T08:37:53;18.55;;;8.88;;
23068;SDS011;11702;50.856;4.348;2022-10-30T08:40:22;17.50;;;8.30;;
23068;SDS011;11702;50.856;4.348;2022-10-30T08:42:52;30.48;;;8.57;;
23068;SDS011;11702;50.856;4.348;2022-10-30T08:45:19;24.77;;;9.05;;
23068;SDS011;11702;50.856;4.348;2022-10-30T08:47:46;26.55;;;9.40;;
23068;SDS011;11702;50.856;4.348;2022-10-30T08:50:12;20.30;;;8.20;;
23068;SDS011;11702;50.856;4.348;2022-10-30T08:52:37;21.50;;;8.35;;
23068;SDS011;11702;50.856;4.348;2022-10-30T08:55:03;27.25;;;9.13;;
23068;SDS011;11702;50.856;4.348;2022-10-30T08:57:33;21.10;;;8.35;;
23068;SDS011;11702;50.856;4.348;2022-10-30T09:00:06;22.08;;;9.18;;
23068;SDS011;11702;50.856;4.348;2022-10-30T09:02:33;26.15;;;9.20;;
23068;SDS011;11702;50.856;4.348;2022-10-30T09:05:00;21.58;;;8.63;;
23068;SDS011;11702;50.856;4.348;2022-10-30T09:07:26;18.38;;;8.63;;
23068;SDS011;11702;50.856;4.348;2022-10-30T09:09:52;22.98;;;8.35;;
23068;SDS011;11702;50.856;4.348;2022-10-30T09:12:17;21.42;;;9.20;;
23068;SDS011;11702;50.856;4.348;2022-10-30T09:14:43;28.52;;;9.32;;
23068;SDS011;11702;50.856;4.348;2022-10-30T09:17:09;20.33;;;9.32;;
23068;SDS011;11702;50.856;4.348;2022-10-30T09:19:34;24.40;;;9.68;;
23068;SDS011;11702;50.856;4.348;2022-10-30T09:22:00;17.58;;;9.10;;
23068;SDS011;11702;50.856;4.348;2022-10-30T09:24:26;30.75;;;9.75;;
23068;SDS011;11702;50.856;4.348;2022-10-30T09:26:51;29.00;;;9.35;;
23068;SDS011;11702;50.856;4.348;2022-10-30T09:29:18;30.05;;;8.88;;
23068;SDS011;11702;50.856;4.348;2022-10-30T09:31:44;29.02;;;10.32;;
23068;SDS011;11702;50.856;4.348;2022-10-30T09:34:10;23.75;;;8.93;;
23068;SDS011;11702;50.856;4.348;2022-10-30T09:36:35;21.85;;;10.25;;
23068;SDS011;11702;50.856;4.348;2022-10-30T09:39:01;23.25;;;9.57;;
23068;SDS011;11702;50.856;4.348;2022-10-30T09:52:33;23.15;;;8.90;;
23068;SDS011;11702;50.856;4.348;2022-10-30T09:58:14;17.83;;;8.15;;
23068;SDS011;11702;50.856;4.348;2022-10-30T10:06:32;19.83;;;8.20;;
23068;SDS011;11702;50.856;4.348;2022-10-30T10:09:05;16.80;;;7.28;;
23068;SDS011;11702;50.856;4.348;2022-10-30T10:11:39;24.13;;;8.77;;
23068;SDS011;11702;50.856;4.348;2022-10-30T10:14:26;23.42;;;8.63;;
23068;SDS011;11702;50.856;4.348;2022-10-30T10:17:09;30.55;;;9.70;;
23068;SDS011;11702;50.856;4.348;2022-10-30T10:19:39;21.85;;;8.38;;
23068;SDS011;11702;50.856;4.348;2022-10-30T10:22:21;20.83;;;8.70;;
23068;SDS011;11702;50.856;4.348;2022-10-30T10:25:08;21.45;;;7.45;;
23068;SDS011;11702;50.856;4.348;2022-10-30T10:30:17;19.85;;;7.97;;
23068;SDS011;11702;50.856;4.348;2022-10-30T10:38:37;22.92;;;7.65;;
23068;SDS011;11702;50.856;4.348;2022-10-30T10:41:28;23.05;;;8.43;;
23068;SDS011;11702;50.856;4.348;2022-10-30T10:44:24;24.05;;;8.25;;
23068;SDS011;11702;50.856;4.348;2022-10-30T10:47:24;23.27;;;8.43;;
23068;SDS011;11702;50.856;4.348;2022-10-30T10:50:04;25.38;;;7.95;;
23068;SDS011;11702;50.856;4.348;2022-10-30T10:52:53;20.30;;;8.40;;
23068;SDS011;11702;50.856;4.348;2022-10-30T10:55:24;19.90;;;11.10;;
23068;SDS011;11702;50.856;4.348;2022-10-30T10:58:06;31.85;;;10.75;;
23068;SDS011;11702;50.856;4.348;2022-10-30T11:00:45;16.33;;;8.35;;
23068;SDS011;11702;50.856;4.348;2022-10-30T11:03:12;21.45;;;8.05;;
23068;SDS011;11702;50.856;4.348;2022-10-30T11:05:55;19.00;;;8.23;;
23068;SDS011;11702;50.856;4.348;2022-10-30T11:08:26;23.55;;;7.35;;
23068;SDS011;11702;50.856;4.348;2022-10-30T11:10:57;19.80;;;8.27;;
23068;SDS011;11702;50.856;4.348;2022-10-30T11:13:26;22.90;;;8.35;;
23068;SDS011;11702;50.856;4.348;2022-10-30T11:18:29;17.48;;;7.47;;
23068;SDS011;11702;50.856;4.348;2022-10-30T11:21:16;17.77;;;7.53;;
23068;SDS011;11702;50.856;4.348;2022-10-30T11:23:46;22.40;;;7.38;;
23068;SDS011;11702;50.856;4.348;2022-10-30T11:28:44;19.63;;;6.22;;
23068;SDS011;11702;50.856;4.348;2022-10-30T11:33:58;14.75;;;6.75;;
23068;SDS011;11702;50.856;4.348;2022-10-30T11:36:24;16.25;;;6.65;;
23068;SDS011;11702;50.856;4.348;2022-10-30T11:38:50;18.98;;;6.35;;
23068;SDS011;11702;50.856;4.348;2022-10-30T11:41:17;20.33;;;6.90;;
23068;SDS011;11702;50.856;4.348;2022-10-30T11:43:43;12.27;;;6.40;;
23068;SDS011;11702;50.856;4.348;2022-10-30T11:46:10;14.57;;;5.90;;
23068;SDS011;11702;50.856;4.348;2022-10-30T11:48:44;20.38;;;5.85;;
23068;SDS011;11702;50.856;4.348;2022-10-30T11:51:13;18.02;;;6.50;;
23068;SDS011;11702;50.856;4.348;2022-10-30T11:53:53;13.07;;;5.32;;
23068;SDS011;11702;50.856;4.348;2022-10-30T11:56:19;17.63;;;5.55;;
23068;SDS011;11702;50.856;4.348;2022-10-30T11:58:48;20.40;;;6.20;;
23068;SDS011;11702;50.856;4.348;2022-10-30T12:03:52;14.52;;;5.90;;
23068;SDS011;11702;50.856;4.348;2022-10-30T12:06:26;22.05;;;6.18;;
23068;SDS011;11702;50.856;4.348;2022-10-30T12:09:00;25.02;;;6.38;;
23068;SDS011;11702;50.856;4.348;2022-10-30T12:11:37;14.85;;;5.93;;
23068;SDS011;11702;50.856;4.348;2022-10-30T12:14:12;15.93;;;6.03;;
23068;SDS011;11702;50.856;4.348;2022-10-30T12:16:42;17.55;;;6.32;;
23068;SDS011;11702;50.856;4.348;2022-10-30T12:19:10;18.05;;;6.43;;
23068;SDS011;11702;50.856;4.348;2022-10-30T12:21:40;15.98;;;6.78;;
23068;SDS011;11702;50.856;4.348;2022-10-30T12:24:16;16.67;;;7.15;;
23068;SDS011;11702;50.856;4.348;2022-10-30T12:26:48;21.20;;;6.60;;
23068;SDS011;11702;50.856;4.348;2022-10-30T12:29:17;15.02;;;5.50;;
23068;SDS011;11702;50.856;4.348;2022-10-30T12:34:25;15.00;;;5.72;;
23068;SDS011;11702;50.856;4.348;2022-10-30T12:36:54;17.55;;;6.45;;
23068;SDS011;11702;50.856;4.348;2022-10-30T12:39:39;15.27;;;6.18;;
23068;SDS011;11702;50.856;4.348;2022-10-30T12:42:16;17.58;;;5.82;;
23068;SDS011;11702;50.856;4.348;2022-10-30T12:44:46;16.38;;;5.93;;
23068;SDS011;11702;50.856;4.348;2022-10-30T12:50:09;16.98;;;5.93;;
23068;SDS011;11702;50.856;4.348;2022-10-30T12:58:04;15.30;;;5.43;;
23068;SDS011;11702;50.856;4.348;2022-10-30T13:01:13;12.55;;;5.82;;
23068;SDS011;11702;50.856;4.348;2022-10-30T13:04:38;25.08;;;6.35;;
23068;SDS011;11702;50.856;4.348;2022-10-30T13:07:12;12.52;;;5.38;;
23068;SDS011;11702;50.856;4.348;2022-10-30T13:10:02;15.40;;;5.63;;
23068;SDS011;11702;50.856;4.348;2022-10-30T13:12:35;14.55;;;5.72;;
23068;SDS011;11702;50.856;4.348;2022-10-30T13:17:44;16.33;;;6.30;;
23068;SDS011;11702;50.856;4.348;2022-10-30T13:20:11;16.23;;;5.70;;
23068;SDS011;11702;50.856;4.348;2022-10-30T13:27:43;21.63;;;5.55;;
23068;SDS011;11702;50.856;4.348;2022-10-30T13:30:24;19.70;;;5.85;;
23068;SDS011;11702;50.856;4.348;2022-10-30T13:35:58;14.95;;;5.28;;
23068;SDS011;11702;50.856;4.348;2022-10-30T13:41:28;15.90;;;5.50;;
23068;SDS011;11702;50.856;4.348;2022-10-30T13:44:16;19.00;;;6.55;;
23068;SDS011;11702;50.856;4.348;2022-10-30T13:54:43;12.50;;;5.38;;
23068;SDS011;11702;50.856;4.348;2022-10-30T13:57:32;16.80;;;5.88;;
23068;SDS011;11702;50.856;4.348;2022-10-30T14:00:19;15.27;;;6.05;;
23068;SDS011;11702;50.856;4.348;2022-10-30T14:03:20;16.45;;;5.40;;
23068;SDS011;11702;50.856;4.348;2022-10-30T14:06:09;16.60;;;5.68;;
23068;SDS011;11702;50.856;4.348;2022-10-30T14:08:41;19.60;;;5.57;;
23068;SDS011;11702;50.856;4.348;2022-10-30T14:11:10;13.43;;;5.78;;
23068;SDS011;11702;50.856;4.348;2022-10-30T14:13:52;20.52;;;6.63;;
23068;SDS011;11702;50.856;4.348;2022-10-30T14:16:31;24.25;;;6.25;;
23068;SDS011;11702;50.856;4.348;2022-10-30T14:19:04;16.02;;;6.32;;
23068;SDS011;11702;50.856;4.348;2022-10-30T14:31:58;16.52;;;6.38;;
23068;SDS011;11702;50.856;4.348;2022-10-30T14:34:43;18.80;;;6.43;;
23068;SDS011;11702;50.856;4.348;2022-10-30T14:37:09;17.40;;;6.35;;
23068;SDS011;11702;50.856;4.348;2022-10-30T14:39:40;18.13;;;7.00;;
23068;SDS011;11702;50.856;4.348;2022-10-30T14:42:12;24.20;;;7.32;;
23068;SDS011;11702;50.856;4.348;2022-10-30T14:44:45;16.05;;;6.93;;
23068;SDS011;11702;50.856;4.348;2022-10-30T14:49:45;15.20;;;7.40;;
23068;SDS011;11702;50.856;4.348;2022-10-30T14:55:23;23.27;;;7.85;;
23068;SDS011;11702;50.856;4.348;2022-10-30T14:58:07;20.65;;;7.55;;
23068;SDS011;11702;50.856;4.348;2022-10-30T15:03:42;20.23;;;7.63;;
23068;SDS011;11702;50.856;4.348;2022-10-30T15:14:35;15.48;;;7.50;;
23068;SDS011;11702;50.856;4.348;2022-10-30T15:17:40;23.20;;;7.75;;
23068;SDS011;11702;50.856;4.348;2022-10-30T15:20:02;21.95;;;8.70;;
23068;SDS011;11702;50.856;4.348;2022-10-30T15:22:31;21.48;;;7.97;;
23068;SDS011;11702;50.856;4.348;2022-10-30T15:24:59;22.88;;;8.98;;
23068;SDS011;11702;50.856;4.348;2022-10-30T15:27:27;27.65;;;8.18;;
23068;SDS011;11702;50.856;4.348;2022-10-30T15:29:58;19.75;;;8.30;;
23068;SDS011;11702;50.856;4.348;2022-10-30T15:32:28;21.38;;;9.60;;
23068;SDS011;11702;50.856;4.348;2022-10-30T15:34:57;23.25;;;8.50;;
23068;SDS011;11702;50.856;4.348;2022-10-30T15:37:25;18.40;;;7.82;;
23068;SDS011;11702;50.856;4.348;2022-10-30T15:42:35;23.58;;;9.70;;
23068;SDS011;11702;50.856;4.348;2022-10-30T15:45:02;17.23;;;9.02;;
23068;SDS011;11702;50.856;4.348;2022-10-30T15:47:28;19.00;;;8.75;;
23068;SDS011;11702;50.856;4.348;2022-10-30T15:49:54;19.38;;;9.20;;
23068;SDS011;11702;50.856;4.348;2022-10-30T15:54:55;22.13;;;9.48;;
23068;SDS011;11702;50.856;4.348;2022-10-30T15:57:30;21.00;;;8.95;;
23068;SDS011;11702;50.856;4.348;2022-10-30T16:00:21;19.92;;;8.48;;
23068;SDS011;11702;50.856;4.348;2022-10-30T16:03:03;17.85;;;7.68;;
23068;SDS011;11702;50.856;4.348;2022-10-30T16:05:31;21.38;;;7.88;;
23068;SDS011;11702;50.856;4.348;2022-10-30T16:07:58;14.52;;;7.57;;
23068;SDS011;11702;50.856;4.348;2022-10-30T16:10:26;13.82;;;7.32;;
23068;SDS011;11702;50.856;4.348;2022-10-30T16:12:57;16.75;;;6.88;;
23068;SDS011;11702;50.856;4.348;2022-10-30T16:15:24;17.52;;;7.32;;
23068;SDS011;11702;50.856;4.348;2022-10-30T16:18:03;12.30;;;6.88;;
23068;SDS011;11702;50.856;4.348;2022-10-30T16:20:51;16.45;;;6.45;;
23068;SDS011;11702;50.856;4.348;2022-10-30T16:23:18;12.80;;;6.45;;
23068;SDS011;11702;50.856;4.348;2022-10-30T16:25:45;13.98;;;6.68;;
23068;SDS011;11702;50.856;4.348;2022-10-30T16:31:01;13.23;;;7.07;;
23068;SDS011;11702;50.856;4.348;2022-10-30T16:33:29;16.95;;;7.38;;
23068;SDS011;11702;50.856;4.348;2022-10-30T16:35:57;15.10;;;6.80;;
23068;SDS011;11702;50.856;4.348;2022-10-30T16:38:26;15.15;;;7.50;;
23068;SDS011;11702;50.856;4.348;2022-10-30T16:40:55;13.52;;;6.90;;
23068;SDS011;11702;50.856;4.348;2022-10-30T16:43:28;16.45;;;6.65;;
23068;SDS011;11702;50.856;4.348;2022-10-30T16:45:56;15.07;;;6.75;;
23068;SDS011;11702;50.856;4.348;2022-10-30T16:48:28;17.70;;;7.40;;
23068;SDS011;11702;50.856;4.348;2022-10-30T16:51:02;18.42;;;7.03;;
23068;SDS011;11702;50.856;4.348;2022-10-30T16:53:28;17.90;;;7.72;;
23068;SDS011;11702;50.856;4.348;2022-10-30T16:55:55;16.70;;;8.05;;
23068;SDS011;11702;50.856;4.348;2022-10-30T16:58:24;16.15;;;7.25;;
23068;SDS011;11702;50.856;4.348;2022-10-30T17:00:52;15.68;;;7.25;;
23068;SDS011;11702;50.856;4.348;2022-10-30T17:03:23;17.40;;;7.78;;
23068;SDS011;11702;50.856;4.348;2022-10-30T17:05:56;20.00;;;7.30;;
23068;SDS011;11702;50.856;4.348;2022-10-30T17:08:34;14.55;;;6.50;;
23068;SDS011;11702;50.856;4.348;2022-10-30T17:11:06;12.88;;;6.20;;